createdAt,value
2018-12-24T00:00:45.825Z,1006.93
2018-12-24T00:01:45.858Z,1006.95
2018-12-24T00:02:45.886Z,1006.97
2018-12-24T00:03:45.917Z,1007.01
2018-12-24T00:04:45.949Z,1007.01
2018-12-24T00:05:45.980Z,1007.01
2018-12-24T00:06:46.009Z,1007.01
2018-12-24T00:07:46.042Z,1007.01
2018-12-24T00:08:46.143Z,1007.03
2018-12-24T00:09:46.111Z,1007.02
2018-12-24T00:10:46.133Z,1007.04
2018-12-24T00:11:46.163Z,1007.05
2018-12-24T00:12:46.195Z,1007.03
2018-12-24T00:13:46.226Z,1007.08
2018-12-24T00:14:46.258Z,1007.08
2018-12-24T00:15:46.285Z,1007.10
2018-12-24T00:16:46.317Z,1007.11
2018-12-24T00:17:46.349Z,1007.11
2018-12-24T00:18:46.467Z,1007.15
2018-12-24T00:19:46.411Z,1007.16
2018-12-24T00:20:46.441Z,1007.14
2018-12-24T00:21:46.475Z,1007.21
2018-12-24T00:22:46.505Z,1007.24
2018-12-24T00:23:46.534Z,1007.26
2018-12-24T00:24:46.564Z,1007.23
2018-12-24T00:25:46.596Z,1007.29
2018-12-24T00:26:46.630Z,1007.27
2018-12-24T00:27:46.658Z,1007.32
2018-12-24T00:28:46.700Z,1007.33
2018-12-24T00:29:46.723Z,1007.35
2018-12-24T00:30:46.751Z,1007.40
2018-12-24T00:31:46.781Z,1007.41
2018-12-24T00:32:46.813Z,1007.44
2018-12-24T00:33:46.844Z,1007.48
2018-12-24T00:34:46.876Z,1007.49
2018-12-24T00:35:46.905Z,1007.50
2018-12-24T00:36:46.944Z,1007.57
2018-12-24T00:37:46.968Z,1007.54
2018-12-24T00:38:47.004Z,1007.54
2018-12-24T00:39:47.028Z,1007.59
2018-12-24T00:40:47.059Z,1007.59
2018-12-24T00:41:47.092Z,1007.61
2018-12-24T00:42:47.128Z,1007.60
2018-12-24T00:43:47.153Z,1007.63
2018-12-24T00:44:47.184Z,1007.69
2018-12-24T00:45:47.215Z,1007.69
2018-12-24T00:46:47.245Z,1007.73
2018-12-24T00:47:47.276Z,1007.69
2018-12-24T00:48:47.309Z,1007.76
2018-12-24T00:49:47.339Z,1007.76
2018-12-24T00:50:47.369Z,1007.74
2018-12-24T00:51:47.400Z,1007.74
2018-12-24T00:52:47.433Z,1007.77
2018-12-24T00:53:47.462Z,1007.80
2018-12-24T00:54:47.493Z,1007.77
2018-12-24T00:55:47.524Z,1007.79
2018-12-24T00:56:47.555Z,1007.81
2018-12-24T00:57:47.585Z,1007.85
2018-12-24T00:58:47.617Z,1007.85
2018-12-24T00:59:47.646Z,1007.88
2018-12-24T01:00:47.677Z,1007.88
2018-12-24T01:01:48.886Z,1007.87
2018-12-24T01:02:47.740Z,1007.86
2018-12-24T01:03:47.769Z,1007.89
2018-12-24T01:04:47.801Z,1007.91
2018-12-24T01:05:47.830Z,1007.93
2018-12-24T01:06:47.862Z,1007.91
2018-12-24T01:07:47.893Z,1007.97
2018-12-24T01:08:47.926Z,1007.99
2018-12-24T01:09:47.953Z,1007.98
2018-12-24T01:10:47.984Z,1008.03
2018-12-24T01:11:48.014Z,1008.00
2018-12-24T01:12:48.045Z,1008.01
2018-12-24T01:13:48.082Z,1008.00
2018-12-24T01:14:48.107Z,1008.06
2018-12-24T01:15:48.136Z,1008.11
2018-12-24T01:16:48.167Z,1008.11
2018-12-24T01:17:48.198Z,1008.14
2018-12-24T01:18:48.232Z,1008.15
2018-12-24T01:19:48.259Z,1008.19
2018-12-24T01:20:48.289Z,1008.23
2018-12-24T01:21:48.322Z,1008.21
2018-12-24T01:22:48.351Z,1008.24
2018-12-24T01:23:48.383Z,1008.20
2018-12-24T01:24:48.412Z,1008.20
2018-12-24T01:25:48.442Z,1008.23
2018-12-24T01:26:48.473Z,1008.21
2018-12-24T01:27:48.503Z,1008.21
2018-12-24T01:28:48.533Z,1008.25
2018-12-24T01:29:48.564Z,1008.25
2018-12-24T01:30:48.595Z,1008.25
2018-12-24T01:31:48.624Z,1008.26
2018-12-24T01:32:48.654Z,1008.29
2018-12-24T01:33:48.686Z,1008.28
2018-12-24T01:34:48.720Z,1008.30
2018-12-24T01:35:48.746Z,1008.31
2018-12-24T01:36:48.776Z,1008.31
2018-12-24T01:37:48.808Z,1008.35
2018-12-24T01:38:48.838Z,1008.36
2018-12-24T01:39:48.868Z,1008.40
2018-12-24T01:40:48.899Z,1008.45
2018-12-24T01:41:48.928Z,1008.46
2018-12-24T01:42:48.959Z,1008.47
2018-12-24T01:43:48.993Z,1008.46
2018-12-24T01:44:49.022Z,1008.48
2018-12-24T01:45:49.050Z,1008.45
2018-12-24T01:46:49.082Z,1008.45
2018-12-24T01:47:49.116Z,1008.47
2018-12-24T01:48:49.144Z,1008.49
2018-12-24T01:49:49.176Z,1008.45
2018-12-24T01:50:49.203Z,1008.46
2018-12-24T01:51:49.235Z,1008.46
2018-12-24T01:52:49.262Z,1008.44
2018-12-24T01:53:49.293Z,1008.41
2018-12-24T01:54:49.324Z,1008.40
2018-12-24T01:55:49.354Z,1008.37
2018-12-24T01:56:49.386Z,1008.40
2018-12-24T01:57:49.415Z,1008.40
2018-12-24T01:58:49.445Z,1008.42
2018-12-24T01:59:49.474Z,1008.49
2018-12-24T02:00:49.506Z,1008.45
2018-12-24T02:01:49.537Z,1008.44
2018-12-24T02:02:49.567Z,1008.47
2018-12-24T02:03:49.596Z,1008.49
2018-12-24T02:04:49.627Z,1008.47
2018-12-24T02:05:49.656Z,1008.53
2018-12-24T02:06:49.689Z,1008.51
2018-12-24T02:07:49.718Z,1008.58
2018-12-24T02:08:49.749Z,1008.58
2018-12-24T02:09:49.779Z,1008.59
2018-12-24T02:10:49.808Z,1008.55
2018-12-24T02:11:49.840Z,1008.56
2018-12-24T02:12:49.869Z,1008.61
2018-12-24T02:13:49.901Z,1008.58
2018-12-24T02:14:49.936Z,1008.59
2018-12-24T02:15:49.959Z,1008.61
2018-12-24T02:16:49.990Z,1008.63
2018-12-24T02:17:50.019Z,1008.64
2018-12-24T02:18:50.051Z,1008.65
2018-12-24T02:19:50.079Z,1008.69
2018-12-24T02:20:50.109Z,1008.69
2018-12-24T02:21:50.139Z,1008.73
2018-12-24T02:22:50.170Z,1008.77
2018-12-24T02:23:50.199Z,1008.76
2018-12-24T02:24:50.229Z,1008.83
2018-12-24T02:25:50.265Z,1008.81
2018-12-24T02:26:50.292Z,1008.88
2018-12-24T02:29:37.505Z,1008.95
2018-12-24T02:30:32.210Z,1008.97
2018-12-24T02:32:35.383Z,1008.99
2018-12-24T02:33:35.386Z,1009.02
2018-12-24T02:35:39.409Z,1009.04
2018-12-24T02:36:39.439Z,1009.02
2018-12-24T02:38:43.477Z,1009.10
2018-12-24T02:39:43.483Z,1009.08
2018-12-24T02:41:47.506Z,1009.15
2018-12-24T02:42:52.240Z,1009.13
2018-12-24T02:44:51.555Z,1009.17
2018-12-24T02:45:51.581Z,1009.25
2018-12-24T02:47:54.756Z,1009.29
2018-12-24T02:48:54.753Z,1009.31
2018-12-24T02:50:56.988Z,1009.31
2018-12-24T02:51:57.015Z,1009.34
2018-12-24T02:53:59.273Z,1009.41
2018-12-24T02:54:59.283Z,1009.43
2018-12-24T02:57:01.428Z,1009.48
2018-12-24T02:58:01.451Z,1009.51
2018-12-24T03:00:05.480Z,1009.55
2018-12-24T03:01:05.506Z,1009.56
2018-12-24T03:02:57.597Z,1009.58
2018-12-24T03:03:57.598Z,1009.58
2018-12-24T03:06:00.683Z,1009.60
2018-12-24T03:07:00.711Z,1009.60
2018-12-24T03:09:03.804Z,1009.63
2018-12-24T03:10:03.812Z,1009.66
2018-12-24T03:11:56.964Z,1009.68
2018-12-24T03:13:02.491Z,1009.67
2018-12-24T03:15:00.264Z,1009.70
2018-12-24T03:16:00.242Z,1009.71
2018-12-24T03:18:04.288Z,1009.77
2018-12-24T03:19:04.289Z,1009.76
2018-12-24T03:21:08.314Z,1009.81
2018-12-24T03:22:08.339Z,1009.83
2018-12-24T03:24:12.379Z,1009.86
2018-12-24T03:25:12.388Z,1009.86
2018-12-24T03:27:16.426Z,1009.93
2018-12-24T03:28:16.435Z,1009.96
2018-12-24T03:30:19.465Z,1009.98
2018-12-24T03:31:19.495Z,1010.02
2018-12-24T03:33:12.461Z,1010.06
2018-12-24T03:34:12.467Z,1010.11
2018-12-24T03:36:15.513Z,1010.14
2018-12-24T03:37:15.540Z,1010.16
2018-12-24T03:39:18.624Z,1010.16
2018-12-24T03:40:18.633Z,1010.21
2018-12-24T03:42:21.701Z,1010.20
2018-12-24T03:43:21.728Z,1010.24
2018-12-24T03:45:24.896Z,1010.24
2018-12-24T03:46:24.917Z,1010.30
2018-12-24T03:48:28.962Z,1010.35
2018-12-24T03:49:28.974Z,1010.30
2018-12-24T03:51:32.991Z,1010.38
2018-12-24T03:52:33.013Z,1010.39
2018-12-24T03:54:37.078Z,1010.47
2018-12-24T03:55:37.087Z,1010.47
2018-12-24T03:57:40.153Z,1010.52
2018-12-24T03:58:40.171Z,1010.56
2018-12-24T04:00:44.193Z,1010.63
2018-12-24T04:01:44.215Z,1010.62
2018-12-24T04:03:48.254Z,1010.69
2018-12-24T04:04:48.262Z,1010.73
2018-12-24T04:06:52.299Z,1010.78
2018-12-24T04:07:52.313Z,1010.83
2018-12-24T04:09:54.541Z,1010.93
2018-12-24T04:10:54.568Z,1010.94
2018-12-24T04:12:47.617Z,1010.96
2018-12-24T04:13:47.540Z,1011.06
2018-12-24T04:15:51.564Z,1011.08
2018-12-24T04:16:51.593Z,1011.13
2018-12-24T04:18:53.697Z,1011.15
2018-12-24T04:19:53.707Z,1011.21
2018-12-24T04:21:56.789Z,1011.31
2018-12-24T04:22:56.816Z,1011.31
2018-12-24T04:25:00.844Z,1011.38
2018-12-24T04:26:00.871Z,1011.41
2018-12-24T04:28:03.913Z,1011.52
2018-12-24T04:29:03.927Z,1011.56
2018-12-24T04:31:07.093Z,1011.54
2018-12-24T04:32:07.116Z,1011.58
2018-12-24T04:34:09.370Z,1011.64
2018-12-24T04:35:09.379Z,1011.65
2018-12-24T04:37:13.401Z,1011.69
2018-12-24T04:38:13.426Z,1011.71
2018-12-24T04:40:17.465Z,1011.82
2018-12-24T04:41:17.473Z,1011.82
2018-12-24T04:43:10.440Z,1011.89
2018-12-24T04:44:10.456Z,1011.89
2018-12-24T04:46:14.476Z,1011.96
2018-12-24T04:47:14.501Z,1012.05
2018-12-24T04:49:18.551Z,1012.06
2018-12-24T04:50:18.546Z,1012.08
2018-12-24T04:52:20.840Z,1012.15
2018-12-24T04:53:20.866Z,1012.21
2018-12-24T04:55:23.925Z,1012.23
2018-12-24T04:56:23.949Z,1012.27
2018-12-24T04:58:27.994Z,1012.33
2018-12-24T04:59:27.999Z,1012.38
2018-12-24T05:01:32.018Z,1012.43
2018-12-24T05:02:32.042Z,1012.47
2018-12-24T05:04:35.098Z,1012.54
2018-12-24T05:05:35.095Z,1012.55
2018-12-24T05:07:27.273Z,1012.59
2018-12-24T05:08:27.306Z,1012.66
2018-12-24T05:10:30.381Z,1012.74
2018-12-24T05:11:30.406Z,1012.74
2018-12-24T05:13:23.363Z,1012.77
2018-12-24T05:14:23.373Z,1012.82
2018-12-24T05:16:15.557Z,1012.88
2018-12-24T05:17:15.581Z,1012.86
2018-12-24T05:19:18.779Z,1012.91
2018-12-24T05:20:18.787Z,1012.91
2018-12-24T05:22:21.975Z,1012.93
2018-12-24T05:23:21.979Z,1012.96
2018-12-24T05:25:26.012Z,1013.01
2018-12-24T05:26:26.035Z,1013.01
2018-12-24T05:28:28.156Z,1013.14
2018-12-24T05:29:28.166Z,1013.18
2018-12-24T05:31:30.314Z,1013.20
2018-12-24T05:32:30.338Z,1013.24
2018-12-24T05:34:33.435Z,1013.29
2018-12-24T05:35:33.445Z,1013.32
2018-12-24T05:37:36.617Z,1013.38
2018-12-24T05:38:36.642Z,1013.47
2018-12-24T05:40:39.708Z,1013.54
2018-12-24T05:41:39.734Z,1013.55
2018-12-24T05:43:49.252Z,1013.55
2018-12-24T05:44:42.091Z,1013.59
2018-12-24T05:46:45.586Z,1013.65
2018-12-24T05:47:45.192Z,1013.67
2018-12-24T05:49:48.266Z,1013.74
2018-12-24T05:50:48.276Z,1013.72
2018-12-24T05:52:40.279Z,1013.85
2018-12-24T05:53:40.308Z,1013.79
2018-12-24T05:55:43.482Z,1013.89
2018-12-24T05:56:43.504Z,1013.98
2018-12-24T05:58:46.587Z,1014.04
2018-12-24T05:59:46.596Z,1014.09
2018-12-24T06:01:50.643Z,1014.12
2018-12-24T06:02:50.663Z,1014.19
2018-12-24T06:04:54.700Z,1014.23
2018-12-24T06:05:54.708Z,1014.26
2018-12-24T06:07:58.733Z,1014.31
2018-12-24T06:08:58.759Z,1014.34
2018-12-24T06:11:01.923Z,1014.36
2018-12-24T06:12:01.948Z,1014.38
2018-12-24T06:14:05.018Z,1014.40
2018-12-24T06:15:05.025Z,1014.45
2018-12-24T06:17:08.529Z,1014.52
2018-12-24T06:18:08.121Z,1014.53
2018-12-24T06:20:12.137Z,1014.62
2018-12-24T06:21:12.162Z,1014.63
2018-12-24T06:23:04.133Z,1014.67
2018-12-24T06:24:04.158Z,1014.74
2018-12-24T06:26:08.185Z,1014.82
2018-12-24T06:27:08.220Z,1014.80
2018-12-24T06:29:11.277Z,1014.89
2018-12-24T06:30:11.284Z,1014.95
2018-12-24T06:32:14.457Z,1014.97
2018-12-24T06:33:14.479Z,1015.02
2018-12-24T06:35:17.638Z,1015.09
2018-12-24T06:36:17.662Z,1015.13
2018-12-24T06:38:19.805Z,1015.18
2018-12-24T06:39:19.825Z,1015.14
2018-12-24T06:41:23.847Z,1015.24
2018-12-24T06:42:23.872Z,1015.27
2018-12-24T06:44:27.909Z,1015.33
2018-12-24T06:45:27.918Z,1015.33
2018-12-24T06:47:30.320Z,1015.37
2018-12-24T06:48:30.332Z,1015.43
2018-12-24T06:50:32.478Z,1015.52
2018-12-24T06:51:32.503Z,1015.54
2018-12-24T06:53:25.469Z,1015.68
2018-12-24T06:54:25.470Z,1015.66
2018-12-24T06:56:28.645Z,1015.72
2018-12-24T06:57:28.672Z,1015.75
2018-12-24T06:59:31.840Z,1015.84
2018-12-24T07:00:31.847Z,1015.85
2018-12-24T07:02:35.867Z,1015.95
2018-12-24T07:03:35.891Z,1015.97
2018-12-24T07:05:39.920Z,1016.03
2018-12-24T07:06:39.944Z,1016.01
2018-12-24T07:08:43.980Z,1016.09
2018-12-24T07:09:43.988Z,1016.14
2018-12-24T07:11:47.073Z,1016.28
2018-12-24T07:12:47.098Z,1016.29
2018-12-24T07:14:50.282Z,1016.30
2018-12-24T07:15:50.290Z,1016.31
2018-12-24T07:17:53.348Z,1016.38
2018-12-24T07:18:53.375Z,1016.41
2018-12-24T07:20:57.872Z,1016.46
2018-12-24T07:21:57.417Z,1016.53
2018-12-24T07:23:50.573Z,1016.57
2018-12-24T07:24:50.584Z,1016.56
2018-12-24T07:26:53.626Z,1016.61
2018-12-24T07:27:53.657Z,1016.67
2018-12-24T07:29:57.673Z,1016.74
2018-12-24T07:30:57.698Z,1016.78
2018-12-24T07:32:49.754Z,1016.82
2018-12-24T07:33:49.780Z,1016.86
2018-12-24T07:35:52.950Z,1016.88
2018-12-24T07:36:52.977Z,1016.88
2018-12-24T07:38:55.145Z,1016.93
2018-12-24T07:39:55.147Z,1016.99
2018-12-24T07:41:58.315Z,1017.08
2018-12-24T07:42:58.341Z,1017.07
2018-12-24T07:45:01.428Z,1017.18
2018-12-24T07:46:01.452Z,1017.17
2018-12-24T07:48:05.470Z,1017.25
2018-12-24T07:49:05.495Z,1017.25
2018-12-24T07:51:07.716Z,1017.33
2018-12-24T07:52:07.737Z,1017.33
2018-12-24T07:54:09.994Z,1017.40
2018-12-24T07:55:10.005Z,1017.41
2018-12-24T07:57:13.065Z,1017.49
2018-12-24T07:58:13.085Z,1017.60
2018-12-24T08:00:17.106Z,1017.69
2018-12-24T08:01:17.130Z,1017.70
2018-12-24T08:03:09.210Z,1017.77
2018-12-24T08:04:09.237Z,1017.78
2018-12-24T08:06:12.305Z,1017.81
2018-12-24T08:07:12.337Z,1017.89
2018-12-24T08:09:14.492Z,1017.87
2018-12-24T08:10:14.499Z,1017.94
2018-12-24T08:12:18.526Z,1018.01
2018-12-24T08:13:18.543Z,1018.13
2018-12-24T08:15:22.563Z,1018.16
2018-12-24T08:16:22.588Z,1018.24
2018-12-24T08:18:25.606Z,1018.31
2018-12-24T08:19:25.630Z,1018.30
2018-12-24T08:21:28.684Z,1018.38
2018-12-24T08:22:28.709Z,1018.40
2018-12-24T08:24:32.744Z,1018.39
2018-12-24T08:25:32.755Z,1018.32
2018-12-24T08:27:36.769Z,1018.41
2018-12-24T08:28:36.795Z,1018.50
2018-12-24T08:30:39.818Z,1018.51
2018-12-24T08:31:39.844Z,1018.50
2018-12-24T08:33:42.327Z,1018.49
2018-12-24T08:34:42.099Z,1018.59
2018-12-24T08:36:45.185Z,1018.60
2018-12-24T08:37:45.213Z,1018.66
2018-12-24T08:39:49.232Z,1018.70
2018-12-24T08:40:49.255Z,1018.69
2018-12-24T08:42:41.312Z,1018.74
2018-12-24T08:43:41.337Z,1018.80
2018-12-24T08:45:44.435Z,1018.79
2018-12-24T08:46:44.452Z,1018.81
2018-12-24T08:48:46.685Z,1018.76
2018-12-24T08:49:46.705Z,1018.77
2018-12-24T08:51:49.777Z,1018.84
2018-12-24T08:52:49.802Z,1018.85
2018-12-24T08:54:51.947Z,1018.91
2018-12-24T08:55:51.972Z,1018.93
2018-12-24T08:57:54.449Z,1018.95
2018-12-24T08:58:54.244Z,1019.01
2018-12-24T09:00:57.413Z,1019.00
2018-12-24T09:01:58.117Z,1019.00
2018-12-24T09:04:01.487Z,1019.04
2018-12-24T09:05:01.489Z,1019.02
2018-12-24T09:07:04.520Z,1019.07
2018-12-24T09:08:04.541Z,1019.07
2018-12-24T09:10:07.611Z,1019.11
2018-12-24T09:11:07.636Z,1019.07
2018-12-24T09:12:59.643Z,1019.12
2018-12-24T09:13:59.668Z,1019.15
2018-12-24T09:16:02.753Z,1019.20
2018-12-24T09:17:02.779Z,1019.20
2018-12-24T09:19:04.957Z,1019.27
2018-12-24T09:20:04.962Z,1019.29
2018-12-24T09:22:07.178Z,1019.35
2018-12-24T09:23:07.202Z,1019.34
2018-12-24T09:25:10.292Z,1019.44
2018-12-24T09:26:10.314Z,1019.44
2018-12-24T09:28:13.360Z,1019.55
2018-12-24T09:29:13.420Z,1019.55
2018-12-24T09:31:15.533Z,1019.62
2018-12-24T09:32:15.557Z,1019.64
2018-12-24T09:34:19.602Z,1019.63
2018-12-24T09:35:19.609Z,1019.67
2018-12-24T09:37:21.850Z,1019.68
2018-12-24T09:38:21.762Z,1019.66
2018-12-24T09:40:23.857Z,1019.71
2018-12-24T09:41:23.880Z,1019.76
2018-12-24T09:43:16.826Z,1019.83
2018-12-24T09:44:16.846Z,1019.80
2018-12-24T09:46:19.862Z,1019.86
2018-12-24T09:47:19.892Z,1019.81
2018-12-24T09:49:21.934Z,1019.86
2018-12-24T09:50:21.940Z,1019.84
2018-12-24T09:52:24.085Z,1019.87
2018-12-24T09:53:24.131Z,1019.84
2018-12-24T09:55:26.174Z,1019.87
2018-12-24T09:56:26.197Z,1019.90
2018-12-24T09:58:28.412Z,1019.91
2018-12-24T09:59:28.443Z,1019.93
2018-12-24T10:01:30.525Z,1019.98
2018-12-24T10:02:30.551Z,1019.96
2018-12-24T10:04:32.625Z,1019.97
2018-12-24T10:05:32.637Z,1019.97
2018-12-24T10:07:35.821Z,1019.99
2018-12-24T10:08:35.768Z,1019.99
2018-12-24T10:10:38.946Z,1019.95
2018-12-24T10:11:38.968Z,1019.98
2018-12-24T10:13:41.346Z,1020.00
2018-12-24T10:14:41.339Z,1020.02
2018-12-24T10:16:45.359Z,1020.06
2018-12-24T10:17:45.381Z,1020.10
2018-12-24T10:19:48.453Z,1020.08
2018-12-24T10:20:48.461Z,1020.12
2018-12-24T10:22:40.550Z,1020.13
2018-12-24T10:23:40.575Z,1020.17
2018-12-24T10:25:43.649Z,1020.14
2018-12-24T10:26:43.673Z,1020.17
2018-12-24T10:28:47.704Z,1020.18
2018-12-24T10:29:47.725Z,1020.18
2018-12-24T10:31:50.034Z,1020.23
2018-12-24T10:32:50.059Z,1020.22
2018-12-24T10:34:54.101Z,1020.23
2018-12-24T10:35:54.110Z,1020.22
2018-12-24T10:37:57.242Z,1020.23
2018-12-24T10:38:57.268Z,1020.20
2018-12-24T10:41:00.434Z,1020.25
2018-12-24T10:42:00.459Z,1020.27
2018-12-24T10:44:04.482Z,1020.35
2018-12-24T10:45:04.506Z,1020.36
2018-12-24T10:47:06.829Z,1020.43
2018-12-24T10:48:06.854Z,1020.44
2018-12-24T10:50:09.011Z,1020.44
2018-12-24T10:51:09.020Z,1020.46
2018-12-24T10:53:01.035Z,1020.48
2018-12-24T10:54:01.053Z,1020.43
2018-12-24T10:56:03.209Z,1020.48
2018-12-24T10:57:03.230Z,1020.50
2018-12-24T10:59:07.254Z,1020.52
2018-12-24T11:00:07.274Z,1020.56
2018-12-24T11:02:11.297Z,1020.58
2018-12-24T11:03:11.323Z,1020.57
2018-12-24T11:05:14.341Z,1020.59
2018-12-24T11:06:14.367Z,1020.58
2018-12-24T11:08:17.429Z,1020.66
2018-12-24T11:09:17.455Z,1020.65
2018-12-24T11:11:21.480Z,1020.73
2018-12-24T11:12:21.497Z,1020.76
2018-12-24T11:14:24.533Z,1020.76
2018-12-24T11:15:25.274Z,1020.77
2018-12-24T11:17:27.608Z,1020.81
2018-12-24T11:18:27.634Z,1020.76
2018-12-24T11:20:31.656Z,1020.81
2018-12-24T11:21:31.677Z,1020.83
2018-12-24T11:23:23.756Z,1020.79
2018-12-24T11:24:23.782Z,1020.77
2018-12-24T11:26:27.802Z,1020.72
2018-12-24T11:27:27.827Z,1020.72
2018-12-24T11:29:30.968Z,1020.75
2018-12-24T11:30:30.990Z,1020.70
2018-12-24T11:32:35.011Z,1020.73
2018-12-24T11:33:35.036Z,1020.69
2018-12-24T11:35:37.378Z,1020.69
2018-12-24T11:36:37.387Z,1020.67
2018-12-24T11:38:39.529Z,1020.62
2018-12-24T11:39:39.553Z,1020.62
2018-12-24T11:41:44.070Z,1020.61
2018-12-24T11:42:43.595Z,1020.66
2018-12-24T11:44:46.647Z,1020.55
2018-12-24T11:45:46.672Z,1020.61
2018-12-24T11:47:50.697Z,1020.65
2018-12-24T11:48:50.717Z,1020.72
2018-12-24T11:50:54.753Z,1020.67
2018-12-24T11:51:54.762Z,1020.67
2018-12-24T11:53:58.781Z,1020.69
2018-12-24T11:54:58.803Z,1020.72
2018-12-24T11:57:02.839Z,1020.75
2018-12-24T11:58:02.845Z,1020.78
2018-12-24T12:00:04.957Z,1020.79
2018-12-24T12:01:04.981Z,1020.71
2018-12-24T12:02:57.924Z,1020.80
2018-12-24T12:03:57.948Z,1020.80
2018-12-24T12:06:01.989Z,1020.83
2018-12-24T12:07:01.995Z,1020.89
2018-12-24T12:09:04.096Z,1020.93
2018-12-24T12:10:04.121Z,1020.87
2018-12-24T12:12:06.263Z,1020.89
2018-12-24T12:13:06.268Z,1020.98
2018-12-24T12:15:08.302Z,1020.95
2018-12-24T12:16:08.330Z,1021.00
2018-12-24T12:18:10.335Z,1021.00
2018-12-24T12:19:10.361Z,1020.98
2018-12-24T12:21:12.388Z,1021.03
2018-12-24T12:22:12.393Z,1021.02
2018-12-24T12:24:14.539Z,1021.01
2018-12-24T12:25:14.563Z,1021.05
2018-12-24T12:27:16.592Z,1021.03
2018-12-24T12:28:17.230Z,1021.05
2018-12-24T12:30:18.610Z,1021.11
2018-12-24T12:31:18.634Z,1021.11
2018-12-24T12:33:10.605Z,1021.11
2018-12-24T12:34:10.630Z,1021.11
2018-12-24T12:36:12.785Z,1021.10
2018-12-24T12:37:12.800Z,1021.11
2018-12-24T12:39:14.896Z,1021.13
2018-12-24T12:40:14.901Z,1021.15
2018-12-24T12:42:17.762Z,1021.23
2018-12-24T12:43:16.934Z,1021.23
2018-12-24T12:45:18.941Z,1021.21
2018-12-24T12:46:18.966Z,1021.20
2018-12-24T12:48:21.442Z,1021.24
2018-12-24T12:49:21.000Z,1021.26
2018-12-24T12:51:23.483Z,1021.29
2018-12-24T12:52:23.030Z,1021.28
2018-12-24T12:54:25.041Z,1021.33
2018-12-24T12:55:25.064Z,1021.32
2018-12-24T12:57:27.098Z,1021.40
2018-12-24T12:58:27.109Z,1021.47
2018-12-24T13:00:29.114Z,1021.51
2018-12-24T13:01:29.139Z,1021.52
2018-12-24T13:03:21.076Z,1021.59
2018-12-24T13:04:21.096Z,1021.58
2018-12-24T13:06:23.140Z,1021.65
2018-12-24T13:07:23.134Z,1021.67
2018-12-24T13:09:25.152Z,1021.71
2018-12-24T13:10:25.179Z,1021.68
2018-12-24T13:11:25.205Z,1021.68
2018-12-24T13:12:25.233Z,1021.70
2018-12-24T13:13:25.261Z,1021.73
2018-12-24T13:14:25.290Z,1021.78
2018-12-24T13:15:25.320Z,1021.72
2018-12-24T13:16:25.347Z,1021.75
2018-12-24T13:17:25.375Z,1021.86
2018-12-24T13:18:25.404Z,1021.76
2018-12-24T13:19:25.434Z,1021.78
2018-12-24T13:20:25.461Z,1021.78
2018-12-24T13:21:25.489Z,1021.80
2018-12-24T13:22:25.519Z,1021.88
2018-12-24T13:23:25.545Z,1021.82
2018-12-24T13:24:25.573Z,1021.87
2018-12-24T13:25:25.603Z,1021.93
2018-12-24T13:26:25.630Z,1021.92
2018-12-24T13:27:25.658Z,1021.87
2018-12-24T13:28:25.687Z,1021.90
2018-12-24T13:29:25.715Z,1021.90
2018-12-24T13:30:25.747Z,1021.97
2018-12-24T13:31:25.770Z,1021.95
2018-12-24T13:32:26.542Z,1021.99
2018-12-24T13:33:25.828Z,1022.00
2018-12-24T13:34:25.856Z,1022.06
2018-12-24T13:35:25.885Z,1022.03
2018-12-24T13:36:25.913Z,1022.05
2018-12-24T13:37:25.946Z,1022.09
2018-12-24T13:38:25.971Z,1022.10
2018-12-24T13:39:25.999Z,1022.04
2018-12-24T13:40:26.026Z,1022.10
2018-12-24T13:41:26.055Z,1022.07
2018-12-24T13:42:26.157Z,1022.11
2018-12-24T13:43:26.117Z,1022.09
2018-12-24T13:44:26.140Z,1022.13
2018-12-24T13:45:26.168Z,1022.10
2018-12-24T13:46:26.197Z,1022.13
2018-12-24T13:47:26.224Z,1022.12
2018-12-24T13:48:26.252Z,1022.12
2018-12-24T13:49:26.280Z,1022.14
2018-12-24T13:50:26.308Z,1022.19
2018-12-24T13:51:26.337Z,1022.17
2018-12-24T13:52:26.365Z,1022.19
2018-12-24T13:53:26.392Z,1022.22
2018-12-24T13:54:26.421Z,1022.23
2018-12-24T13:55:26.451Z,1022.25
2018-12-24T13:56:26.480Z,1022.32
2018-12-24T13:57:26.510Z,1022.37
2018-12-24T13:58:26.535Z,1022.37
2018-12-24T13:59:26.564Z,1022.41
2018-12-24T14:00:26.591Z,1022.43
2018-12-24T14:01:26.620Z,1022.41
2018-12-24T14:02:26.649Z,1022.44
2018-12-24T14:03:26.678Z,1022.47
2018-12-24T14:04:26.706Z,1022.50
2018-12-24T14:05:26.732Z,1022.49
2018-12-24T14:06:26.760Z,1022.57
2018-12-24T14:07:26.789Z,1022.51
2018-12-24T14:08:26.817Z,1022.48
2018-12-24T14:09:26.847Z,1022.47
2018-12-24T14:10:26.874Z,1022.46
2018-12-24T14:11:26.902Z,1022.50
2018-12-24T14:12:26.930Z,1022.49
2018-12-24T14:13:26.958Z,1022.46
2018-12-24T14:14:26.986Z,1022.41
2018-12-24T14:15:27.015Z,1022.45
2018-12-24T14:16:27.045Z,1022.45
2018-12-24T14:17:27.072Z,1022.49
2018-12-24T14:18:27.100Z,1022.41
2018-12-24T14:19:27.127Z,1022.49
2018-12-24T14:20:27.157Z,1022.49
2018-12-24T14:21:27.184Z,1022.42
2018-12-24T14:22:27.211Z,1022.49
2018-12-24T14:23:27.243Z,1022.52
2018-12-24T14:24:27.268Z,1022.51
2018-12-24T14:25:27.295Z,1022.54
2018-12-24T14:26:27.324Z,1022.50
2018-12-24T14:27:27.352Z,1022.53
2018-12-24T14:28:27.381Z,1022.56
2018-12-24T14:29:27.410Z,1022.60
2018-12-24T14:30:27.437Z,1022.59
2018-12-24T14:31:27.466Z,1022.61
2018-12-24T14:32:27.493Z,1022.63
2018-12-24T14:33:27.521Z,1022.61
2018-12-24T14:34:27.550Z,1022.63
2018-12-24T14:35:27.590Z,1022.68
2018-12-24T14:36:27.606Z,1022.70
2018-12-24T14:37:27.654Z,1022.65
2018-12-24T14:38:27.663Z,1022.74
2018-12-24T14:39:27.692Z,1022.69
2018-12-24T14:40:27.718Z,1022.73
2018-12-24T14:41:27.748Z,1022.71
2018-12-24T14:42:27.787Z,1022.73
2018-12-24T14:43:27.802Z,1022.71
2018-12-24T14:44:27.832Z,1022.70
2018-12-24T14:45:27.861Z,1022.74
2018-12-24T14:46:27.887Z,1022.70
2018-12-24T14:47:27.916Z,1022.71
2018-12-24T14:48:27.946Z,1022.73
2018-12-24T14:49:27.972Z,1022.75
2018-12-24T14:50:28.001Z,1022.86
2018-12-24T14:51:28.028Z,1022.83
2018-12-24T14:52:28.060Z,1022.90
2018-12-24T14:53:28.084Z,1022.92
2018-12-24T14:54:28.114Z,1022.92
2018-12-24T14:55:28.142Z,1022.95
2018-12-24T14:56:28.171Z,1023.00
2018-12-24T14:57:28.197Z,1023.07
2018-12-24T14:58:28.225Z,1023.09
2018-12-24T14:59:28.257Z,1023.16
2018-12-24T15:00:28.283Z,1023.17
2018-12-24T15:01:28.311Z,1023.17
2018-12-24T15:02:28.339Z,1023.22
2018-12-24T15:03:28.374Z,1023.23
2018-12-24T15:04:28.399Z,1023.26
2018-12-24T15:05:28.424Z,1023.25
2018-12-24T15:06:28.451Z,1023.23
2018-12-24T15:07:28.482Z,1023.25
2018-12-24T15:08:28.511Z,1023.28
2018-12-24T15:09:28.535Z,1023.29
2018-12-24T15:10:28.563Z,1023.33
2018-12-24T15:11:28.592Z,1023.39
2018-12-24T15:12:28.624Z,1023.39
2018-12-24T15:13:28.647Z,1023.39
2018-12-24T15:14:28.677Z,1023.37
2018-12-24T15:15:28.705Z,1023.40
2018-12-24T15:16:34.017Z,1023.41
2018-12-24T15:17:28.766Z,1023.40
2018-12-24T15:18:28.788Z,1023.44
2018-12-24T15:19:28.817Z,1023.40
2018-12-24T15:20:28.846Z,1023.39
2018-12-24T15:21:28.873Z,1023.40
2018-12-24T15:22:28.902Z,1023.38
2018-12-24T15:23:28.930Z,1023.35
2018-12-24T15:24:28.958Z,1023.38
2018-12-24T15:25:28.986Z,1023.35
2018-12-24T15:26:29.013Z,1023.33
2018-12-24T15:27:29.041Z,1023.37
2018-12-24T15:28:29.070Z,1023.36
2018-12-24T15:29:29.104Z,1023.36
2018-12-24T15:30:29.125Z,1023.33
2018-12-24T15:31:29.153Z,1023.34
2018-12-24T15:32:29.184Z,1023.37
2018-12-24T15:33:29.209Z,1023.38
2018-12-24T15:34:29.240Z,1023.37
2018-12-24T15:35:29.268Z,1023.38
2018-12-24T15:36:29.294Z,1023.33
2018-12-24T15:37:29.321Z,1023.34
2018-12-24T15:38:29.350Z,1023.33
2018-12-24T15:39:29.378Z,1023.30
2018-12-24T15:40:29.409Z,1023.36
2018-12-24T15:41:29.480Z,1023.38
2018-12-24T15:42:29.462Z,1023.37
2018-12-24T15:43:29.490Z,1023.38
2018-12-24T15:44:29.521Z,1023.39
2018-12-24T15:45:29.546Z,1023.37